createdAt,value
2023-09-15T00:00:35.177Z,99.99
2023-09-15T00:01:35.166Z,99.99
2023-09-15T00:02:35.193Z,99.99
2023-09-15T00:03:35.183Z,99.99
2023-09-15T00:04:35.969Z,99.99
2023-09-15T00:05:35.188Z,99.99
2023-09-15T00:06:35.108Z,99.99
2023-09-15T00:07:35.085Z,99.99
2023-09-15T00:08:35.093Z,99.99
2023-09-15T00:09:35.088Z,99.99
2023-09-15T00:10:35.055Z,99.99
2023-09-15T00:11:35.063Z,99.99
2023-09-15T00:12:35.072Z,99.99
2023-09-15T00:13:35.130Z,99.99
2023-09-15T00:14:35.017Z,99.99
2023-09-15T00:15:35.053Z,99.99
2023-09-15T00:16:35.096Z,99.99
2023-09-15T00:17:35.001Z,99.99
2023-09-15T00:18:35.023Z,99.99
2023-09-15T00:19:34.964Z,99.99
2023-09-15T00:20:34.948Z,99.99
2023-09-15T00:21:34.975Z,99.99
2023-09-15T00:22:34.935Z,99.99
2023-09-15T00:23:34.914Z,99.99
2023-09-15T00:24:34.964Z,99.99
2023-09-15T00:25:34.918Z,99.99
2023-09-15T00:26:34.895Z,99.99
2023-09-15T00:27:34.898Z,99.99
2023-09-15T00:28:34.872Z,99.99
2023-09-15T00:29:34.885Z,99.99
2023-09-15T00:30:34.882Z,99.99
2023-09-15T00:31:34.852Z,99.99
2023-09-15T00:32:34.869Z,99.99
2023-09-15T00:33:34.878Z,99.99
2023-09-15T00:34:34.814Z,99.99
2023-09-15T00:35:34.818Z,99.99
2023-09-15T00:36:34.797Z,99.99
2023-09-15T00:37:34.771Z,99.99
2023-09-15T00:38:34.766Z,99.99
2023-09-15T00:39:34.757Z,99.99
2023-09-15T00:40:34.745Z,99.99
2023-09-15T00:41:34.744Z,99.99
2023-09-15T00:42:34.730Z,99.99
2023-09-15T00:43:34.702Z,99.99
2023-09-15T00:44:34.717Z,99.99
2023-09-15T00:45:34.712Z,99.99
2023-09-15T00:46:34.839Z,99.99
2023-09-15T00:47:34.661Z,99.99
2023-09-15T00:48:34.659Z,99.99
2023-09-15T00:49:34.637Z,99.99
2023-09-15T00:50:34.648Z,99.99
2023-09-15T00:51:34.647Z,99.99
2023-09-15T00:52:34.638Z,99.99
2023-09-15T00:53:34.609Z,99.99
2023-09-15T00:54:34.601Z,99.99
2023-09-15T00:55:34.587Z,99.99
2023-09-15T00:56:34.566Z,99.99
2023-09-15T00:57:34.562Z,99.99
2023-09-15T00:58:34.591Z,99.99
2023-09-15T00:59:34.543Z,99.99
2023-09-15T01:00:34.537Z,99.99
2023-09-15T01:01:34.575Z,99.99
2023-09-15T01:02:34.542Z,99.99
2023-09-15T01:03:34.559Z,99.99
2023-09-15T01:04:34.472Z,99.99
2023-09-15T01:05:34.487Z,99.99
2023-09-15T01:06:34.457Z,99.99
2023-09-15T01:07:34.448Z,99.99
2023-09-15T01:08:34.446Z,99.99
2023-09-15T01:09:34.431Z,99.99
2023-09-15T01:10:34.423Z,99.99
2023-09-15T01:11:34.414Z,99.99
2023-09-15T01:12:34.385Z,99.99
2023-09-15T01:13:34.402Z,99.99
2023-09-15T01:14:34.377Z,99.99
2023-09-15T01:15:34.541Z,99.99
2023-09-15T01:16:34.423Z,99.99
2023-09-15T01:17:34.383Z,99.99
2023-09-15T01:18:34.359Z,99.99
2023-09-15T01:19:34.349Z,99.99
2023-09-15T01:20:34.326Z,99.99
2023-09-15T01:21:34.303Z,99.99
2023-09-15T01:22:34.296Z,99.99
2023-09-15T01:23:34.294Z,99.99
2023-09-15T01:24:34.289Z,99.99
2023-09-15T01:25:34.261Z,99.99
2023-09-15T01:26:34.256Z,99.99
2023-09-15T01:27:34.259Z,99.99
2023-09-15T01:28:34.215Z,99.99
2023-09-15T01:29:34.214Z,99.99
2023-09-15T01:30:34.225Z,99.99
2023-09-15T01:31:34.272Z,99.99
2023-09-15T01:32:34.183Z,99.99
2023-09-15T01:33:34.169Z,99.99
2023-09-15T01:34:34.180Z,99.99
2023-09-15T01:35:34.177Z,99.99
2023-09-15T01:36:34.129Z,99.99
2023-09-15T01:37:34.123Z,99.99
2023-09-15T01:38:34.130Z,99.99
2023-09-15T01:39:34.107Z,99.99
2023-09-15T01:40:34.100Z,99.99
2023-09-15T01:41:34.084Z,99.99
2023-09-15T01:42:34.065Z,99.99
2023-09-15T01:43:34.077Z,99.99
2023-09-15T01:44:34.049Z,99.99
2023-09-15T01:45:34.074Z,99.99
2023-09-15T01:46:34.126Z,99.99
2023-09-15T01:47:34.053Z,99.99
2023-09-15T01:48:34.009Z,99.99
2023-09-15T01:49:33.993Z,99.99
2023-09-15T01:50:33.984Z,99.99
2023-09-15T01:51:33.997Z,99.99
2023-09-15T01:52:33.969Z,99.99
2023-09-15T01:53:33.957Z,99.99
2023-09-15T01:54:33.946Z,99.99
2023-09-15T01:55:33.945Z,99.99
2023-09-15T01:56:33.945Z,99.99
2023-09-15T01:57:33.913Z,99.99
2023-09-15T01:58:33.905Z,99.99
2023-09-15T01:59:33.906Z,99.99
2023-09-15T02:00:33.879Z,99.99
2023-09-15T02:01:33.925Z,99.99
2023-09-15T02:02:33.893Z,99.99
2023-09-15T02:03:33.952Z,99.99
2023-09-15T02:04:33.841Z,99.99
2023-09-15T02:05:33.816Z,99.99
2023-09-15T02:06:33.835Z,99.99
2023-09-15T02:07:33.808Z,99.99
2023-09-15T02:08:33.795Z,99.99
2023-09-15T02:09:33.825Z,99.99
2023-09-15T02:10:33.769Z,99.99
2023-09-15T02:11:33.797Z,99.99
2023-09-15T02:12:33.756Z,99.99
2023-09-15T02:13:33.745Z,99.99
2023-09-15T02:14:33.743Z,99.99
2023-09-15T02:15:33.746Z,99.99
2023-09-15T02:16:33.768Z,99.99
2023-09-15T02:17:33.718Z,99.99
2023-09-15T02:18:33.706Z,99.99
2023-09-15T02:19:33.693Z,99.99
2023-09-15T02:20:33.690Z,99.99
2023-09-15T02:21:33.693Z,99.99
2023-09-15T02:22:33.654Z,99.99
2023-09-15T02:23:33.636Z,99.99
2023-09-15T02:24:33.637Z,99.99
2023-09-15T02:25:33.623Z,99.99
2023-09-15T02:26:33.629Z,99.99
2023-09-15T02:27:33.613Z,99.99
2023-09-15T02:28:33.592Z,99.99
2023-09-15T02:29:33.571Z,99.99
2023-09-15T02:30:33.614Z,99.99
2023-09-15T02:31:33.619Z,99.99
2023-09-15T02:32:33.549Z,99.99
2023-09-15T02:33:33.546Z,99.99
2023-09-15T02:34:33.519Z,99.99
2023-09-15T02:35:33.513Z,99.99
2023-09-15T02:36:33.508Z,99.99
2023-09-15T02:37:33.500Z,99.99
2023-09-15T02:38:33.480Z,99.99
2023-09-15T02:39:33.473Z,99.99
2023-09-15T02:40:33.458Z,99.99
2023-09-15T02:41:35.022Z,99.99
2023-09-15T02:42:33.435Z,99.99
2023-09-15T02:43:33.434Z,99.99
2023-09-15T02:44:33.401Z,99.99
2023-09-15T02:45:33.416Z,99.99
2023-09-15T02:46:33.537Z,99.99
2023-09-15T02:47:33.399Z,99.99
2023-09-15T02:48:33.363Z,99.99
2023-09-15T02:49:33.418Z,99.99
2023-09-15T02:50:33.354Z,99.99
2023-09-15T02:51:33.342Z,99.99
2023-09-15T02:52:33.344Z,99.99
2023-09-15T02:53:33.305Z,99.99
2023-09-15T02:54:33.311Z,99.99
2023-09-15T02:55:33.294Z,99.99
2023-09-15T02:56:33.280Z,99.99
2023-09-15T02:57:33.294Z,99.99
2023-09-15T02:58:33.282Z,99.99
2023-09-15T02:59:33.264Z,99.99
2023-09-15T03:00:33.275Z,99.99
2023-09-15T03:01:33.313Z,99.99
2023-09-15T03:02:33.370Z,99.99
2023-09-15T03:03:33.316Z,99.99
2023-09-15T03:04:33.221Z,99.99
2023-09-15T03:05:33.270Z,99.99
2023-09-15T03:06:33.176Z,99.99
2023-09-15T03:07:33.179Z,99.99
2023-09-15T03:08:33.245Z,99.99
2023-09-15T03:09:33.156Z,99.99
2023-09-15T03:10:33.136Z,99.99
2023-09-15T03:11:33.252Z,99.99
2023-09-15T03:12:33.115Z,99.99
2023-09-15T03:13:33.101Z,99.99
2023-09-15T03:14:33.171Z,99.99
2023-09-15T03:15:33.097Z,99.99
2023-09-15T03:16:33.281Z,99.99
2023-09-15T03:17:33.220Z,99.99
2023-09-15T03:18:33.039Z,99.99
2023-09-15T03:19:33.084Z,99.99
2023-09-15T03:20:33.036Z,99.99
2023-09-15T03:21:33.104Z,99.99
2023-09-15T03:22:33.048Z,99.99
2023-09-15T03:23:33.183Z,99.99
2023-09-15T03:24:33.097Z,99.99
2023-09-15T03:25:33.098Z,99.99
2023-09-15T03:26:32.965Z,99.99
2023-09-15T03:27:32.953Z,99.99
2023-09-15T03:28:32.933Z,99.99
2023-09-15T03:29:32.951Z,99.99
2023-09-15T03:30:32.949Z,99.99
2023-09-15T03:31:32.978Z,99.99
2023-09-15T03:32:32.926Z,99.99
2023-09-15T03:33:32.901Z,99.99
2023-09-15T03:34:32.912Z,99.99
2023-09-15T03:35:32.883Z,99.99
2023-09-15T03:36:32.851Z,99.99
2023-09-15T03:37:32.860Z,99.99
2023-09-15T03:38:32.837Z,99.99
2023-09-15T03:39:33.001Z,99.99
2023-09-15T03:40:32.828Z,99.99
2023-09-15T03:41:32.809Z,99.99
2023-09-15T03:42:32.853Z,99.99
2023-09-15T03:43:32.791Z,99.99
2023-09-15T03:44:32.770Z,99.99
2023-09-15T03:45:32.851Z,99.99
2023-09-15T03:46:32.875Z,99.99
2023-09-15T03:47:32.762Z,99.99
2023-09-15T03:48:32.791Z,99.99
2023-09-15T03:49:32.727Z,99.99
2023-09-15T03:50:32.706Z,99.99
2023-09-15T03:51:32.739Z,99.99
2023-09-15T03:52:32.686Z,99.99
2023-09-15T03:53:32.670Z,99.99
2023-09-15T03:54:32.659Z,99.99
2023-09-15T03:55:32.654Z,99.99
2023-09-15T03:56:32.666Z,99.99
2023-09-15T03:57:32.636Z,99.99
2023-09-15T03:58:32.622Z,99.99
2023-09-15T03:59:32.616Z,99.99
2023-09-15T04:00:32.598Z,99.99
2023-09-15T04:01:32.692Z,99.99
2023-09-15T04:02:32.612Z,99.99
2023-09-15T04:03:32.622Z,99.99
2023-09-15T04:04:32.687Z,99.99
2023-09-15T04:05:32.556Z,99.99
2023-09-15T04:06:32.562Z,99.99
2023-09-15T04:07:32.607Z,99.99
2023-09-15T04:08:32.531Z,99.99
2023-09-15T04:09:32.540Z,99.99
2023-09-15T04:10:32.685Z,99.99
2023-09-15T04:11:32.506Z,99.99
2023-09-15T04:12:32.554Z,99.99
2023-09-15T04:13:32.448Z,99.99
2023-09-15T04:14:32.481Z,99.99
2023-09-15T04:15:32.498Z,99.99
2023-09-15T04:16:32.516Z,99.99
2023-09-15T04:17:32.475Z,99.99
2023-09-15T04:18:32.395Z,99.99
2023-09-15T04:19:32.495Z,99.99
2023-09-15T04:20:43.624Z,99.99
2023-09-15T04:21:32.411Z,99.99
2023-09-15T04:22:32.376Z,99.99
2023-09-15T04:23:32.367Z,99.99
2023-09-15T04:24:32.343Z,99.99
2023-09-15T04:25:32.350Z,99.99
2023-09-15T04:26:32.342Z,99.99
2023-09-15T04:27:32.318Z,99.99
2023-09-15T04:28:32.310Z,99.99
2023-09-15T04:29:32.286Z,99.99
2023-09-15T04:30:32.279Z,99.99
2023-09-15T04:31:32.442Z,99.99
2023-09-15T04:32:32.310Z,99.99
2023-09-15T04:33:32.272Z,99.99
2023-09-15T04:34:32.178Z,99.99
2023-09-15T04:35:32.194Z,99.99
2023-09-15T04:36:32.148Z,99.99
2023-09-15T04:37:32.185Z,99.99
2023-09-15T04:38:32.138Z,99.99
2023-09-15T04:39:32.129Z,99.99
2023-09-15T04:40:32.121Z,99.99
2023-09-15T04:41:32.112Z,99.99
2023-09-15T04:42:32.095Z,99.99
2023-09-15T04:43:32.094Z,99.99
2023-09-15T04:44:32.062Z,99.99
2023-09-15T04:45:32.066Z,99.99
2023-09-15T04:46:32.184Z,99.99
2023-09-15T04:47:32.075Z,99.99
2023-09-15T04:48:32.068Z,99.99
2023-09-15T04:49:32.168Z,99.99
2023-09-15T04:50:32.035Z,99.99
2023-09-15T04:51:32.015Z,99.99
2023-09-15T04:52:32.001Z,99.99
2023-09-15T04:53:31.973Z,99.99
2023-09-15T04:54:31.973Z,99.99
2023-09-15T04:55:31.974Z,99.99
2023-09-15T04:56:31.977Z,99.99
2023-09-15T04:57:31.938Z,99.99
2023-09-15T04:58:31.921Z,99.99
2023-09-15T04:59:31.922Z,99.99
2023-09-15T05:00:31.904Z,99.99
2023-09-15T05:01:31.955Z,99.99
2023-09-15T05:02:31.909Z,99.99
2023-09-15T05:03:31.925Z,99.99
2023-09-15T05:04:31.881Z,99.99
2023-09-15T05:05:31.873Z,99.99
2023-09-15T05:06:31.841Z,99.99
2023-09-15T05:07:31.868Z,99.99
2023-09-15T05:08:31.832Z,99.99
2023-09-15T05:09:31.804Z,99.99
2023-09-15T05:10:31.873Z,99.99
2023-09-15T05:11:31.776Z,99.99
2023-09-15T05:12:31.795Z,99.99
2023-09-15T05:13:31.815Z,99.99
2023-09-15T05:14:33.890Z,99.99
2023-09-15T05:15:31.748Z,99.99
2023-09-15T05:16:31.790Z,99.99
2023-09-15T05:17:31.744Z,99.99
2023-09-15T05:18:31.731Z,99.99
2023-09-15T05:19:31.699Z,99.99
2023-09-15T05:20:31.742Z,99.99
2023-09-15T05:21:31.676Z,99.99
2023-09-15T05:22:31.683Z,99.99
2023-09-15T05:23:31.767Z,99.99
2023-09-15T05:24:31.657Z,99.99
2023-09-15T05:25:31.688Z,99.99
2023-09-15T05:26:31.636Z,99.99
2023-09-15T05:27:31.612Z,99.99
2023-09-15T05:28:31.713Z,99.99
2023-09-15T05:29:31.618Z,99.99
2023-09-15T05:30:31.608Z,99.99
2023-09-15T05:31:31.697Z,99.99
2023-09-15T05:32:31.575Z,99.99
2023-09-15T05:33:31.595Z,99.99
2023-09-15T05:34:31.639Z,99.99
2023-09-15T05:35:31.537Z,99.99
2023-09-15T05:36:31.547Z,99.99
2023-09-15T05:37:31.623Z,99.99
2023-09-15T05:38:31.548Z,99.99
2023-09-15T05:39:31.487Z,99.99
2023-09-15T05:40:31.528Z,99.99
2023-09-15T05:41:31.635Z,99.99
2023-09-15T05:42:31.500Z,99.99
2023-09-15T05:43:31.507Z,99.99
2023-09-15T05:44:31.452Z,99.99
2023-09-15T05:45:31.450Z,99.99
2023-09-15T05:46:31.624Z,99.99
2023-09-15T05:47:31.458Z,99.99
2023-09-15T05:48:31.451Z,99.99
2023-09-15T05:49:31.457Z,99.99
2023-09-15T05:50:31.382Z,99.99
2023-09-15T05:51:31.367Z,99.99
2023-09-15T05:52:31.585Z,99.99
2023-09-15T05:53:31.359Z,99.99
2023-09-15T05:54:31.362Z,99.99
2023-09-15T05:55:31.557Z,99.99
2023-09-15T05:56:31.329Z,99.99
2023-09-15T05:57:31.297Z,99.99
2023-09-15T05:58:31.490Z,99.99
2023-09-15T05:59:31.286Z,99.99
2023-09-15T06:00:31.395Z,99.99
2023-09-15T06:01:31.498Z,99.99
2023-09-15T06:02:31.287Z,99.99
2023-09-15T06:03:31.271Z,99.99
2023-09-15T06:04:31.457Z,99.99
2023-09-15T06:05:31.205Z,99.99
2023-09-15T06:06:31.213Z,99.99
2023-09-15T06:07:31.232Z,99.99
2023-09-15T06:08:31.200Z,99.99
2023-09-15T06:09:31.189Z,99.99
2023-09-15T06:10:31.223Z,99.99
2023-09-15T06:11:31.157Z,99.99
2023-09-15T06:12:31.156Z,99.99
2023-09-15T06:13:31.211Z,99.99
2023-09-15T06:14:31.124Z,99.99
2023-09-15T06:15:31.133Z,99.99
2023-09-15T06:16:31.183Z,99.99
2023-09-15T06:17:31.138Z,99.99
2023-09-15T06:18:31.097Z,99.99
2023-09-15T06:19:31.087Z,99.99
2023-09-15T06:20:31.091Z,99.99
2023-09-15T06:21:31.113Z,99.99
2023-09-15T06:22:31.076Z,99.99
2023-09-15T06:23:31.051Z,99.99
2023-09-15T06:24:31.057Z,99.99
2023-09-15T06:25:31.036Z,99.99
2023-09-15T06:26:30.990Z,99.99
2023-09-15T06:27:31.028Z,99.99
2023-09-15T06:28:31.059Z,99.99
2023-09-15T06:29:31.064Z,99.99
2023-09-15T06:30:31.143Z,99.99
2023-09-15T06:31:31.022Z,99.99
2023-09-15T06:32:31.001Z,99.99
2023-09-15T06:33:30.938Z,99.99
2023-09-15T06:34:30.948Z,99.99
2023-09-15T06:35:30.906Z,99.99
2023-09-15T06:36:30.976Z,99.99
2023-09-15T06:37:30.935Z,99.99
2023-09-15T06:38:30.859Z,99.99
2023-09-15T06:39:30.913Z,99.99
2023-09-15T06:40:30.903Z,99.99
2023-09-15T06:41:30.847Z,99.99
2023-09-15T06:42:30.875Z,99.99
2023-09-15T06:43:30.890Z,99.99
2023-09-15T06:44:30.811Z,99.99
2023-09-15T06:45:30.985Z,99.99
2023-09-15T06:46:30.901Z,99.99
2023-09-15T06:47:30.837Z,99.99
2023-09-15T06:48:30.823Z,99.99
2023-09-15T06:49:30.802Z,99.99
2023-09-15T06:50:30.774Z,99.99
2023-09-15T06:51:30.787Z,99.99
2023-09-15T06:52:30.807Z,99.99
2023-09-15T06:53:30.717Z,99.99
2023-09-15T06:54:30.810Z,99.99
2023-09-15T06:55:30.738Z,99.99
2023-09-15T06:56:30.673Z,99.99
2023-09-15T06:57:30.752Z,99.99
2023-09-15T06:58:30.722Z,99.99
2023-09-15T06:59:30.646Z,99.99
2023-09-15T07:00:30.718Z,99.99
2023-09-15T07:01:30.668Z,99.99
2023-09-15T07:02:30.665Z,99.99
2023-09-15T07:03:30.658Z,99.99
2023-09-15T07:04:30.678Z,99.99
2023-09-15T07:05:30.587Z,99.99
2023-09-15T07:06:30.632Z,99.99
2023-09-15T07:07:30.593Z,99.99
2023-09-15T07:08:30.560Z,99.99
2023-09-15T07:09:30.581Z,99.99
2023-09-15T07:10:30.580Z,99.99
2023-09-15T07:11:30.536Z,99.99
2023-09-15T07:12:30.572Z,99.99
2023-09-15T07:13:30.528Z,99.99
2023-09-15T07:14:30.481Z,99.99
2023-09-15T07:15:30.527Z,99.99
2023-09-15T07:16:30.557Z,99.99
2023-09-15T07:17:30.562Z,99.99
2023-09-15T07:18:30.537Z,99.99
2023-09-15T07:19:30.486Z,99.99
2023-09-15T07:20:30.422Z,99.99
2023-09-15T07:21:30.451Z,99.99
2023-09-15T07:22:30.404Z,99.99
2023-09-15T07:23:30.421Z,99.99
2023-09-15T07:24:30.434Z,99.99
2023-09-15T07:25:30.444Z,99.99
2023-09-15T07:26:30.356Z,99.99
2023-09-15T07:27:30.428Z,99.99
2023-09-15T07:28:30.411Z,99.99
2023-09-15T07:29:30.344Z,99.91
2023-09-15T07:30:30.400Z,99.91
2023-09-15T07:31:30.396Z,99.50
2023-09-15T07:32:30.385Z,99.19
2023-09-15T07:33:30.337Z,98.99
2023-09-15T07:34:30.324Z,98.84
2023-09-15T07:35:30.260Z,98.64
2023-09-15T07:36:30.255Z,98.43
2023-09-15T07:37:30.305Z,98.43
2023-09-15T07:38:31.439Z,97.92
2023-09-15T07:39:30.264Z,97.47
2023-09-15T07:40:30.242Z,97.16
2023-09-15T07:41:30.200Z,97.16
2023-09-15T07:42:30.198Z,96.55
2023-09-15T07:43:30.230Z,95.53
2023-09-15T07:44:30.222Z,95.64
2023-09-15T07:45:30.205Z,95.08
2023-09-15T07:46:30.275Z,94.78
2023-09-15T07:47:30.170Z,94.57
2023-09-15T07:48:30.118Z,94.98
2023-09-15T07:49:30.180Z,95.08
2023-09-15T07:50:30.127Z,94.57
2023-09-15T07:51:30.124Z,93.92
2023-09-15T07:52:30.171Z,93.82
2023-09-15T07:53:30.097Z,94.12
2023-09-15T07:54:30.082Z,93.37
2023-09-15T07:55:30.101Z,93.77
2023-09-15T07:56:30.044Z,93.98
2023-09-15T07:57:30.060Z,94.18
2023-09-15T07:58:30.148Z,93.87
2023-09-15T07:59:30.021Z,94.08
2023-09-15T08:00:30.017Z,94.28
2023-09-15T08:01:30.649Z,94.59
2023-09-15T08:02:30.090Z,94.18
2023-09-15T08:03:29.997Z,94.18
2023-09-15T08:04:30.136Z,93.87
2023-09-15T08:05:29.948Z,93.73
2023-09-15T08:06:29.954Z,93.12
2023-09-15T08:07:30.007Z,93.32
2023-09-15T08:08:29.936Z,93.52
2023-09-15T08:09:29.931Z,93.43
2023-09-15T08:10:29.959Z,93.63
2023-09-15T08:11:29.880Z,93.22
2023-09-15T08:12:29.866Z,93.52
2023-09-15T08:13:29.932Z,93.89
2023-09-15T08:14:29.842Z,93.68
2023-09-15T08:15:29.856Z,92.97
2023-09-15T08:16:29.918Z,93.07
2023-09-15T08:17:34.180Z,91.96
2023-09-15T08:18:29.875Z,91.55
2023-09-15T08:19:29.903Z,91.65
2023-09-15T08:20:29.803Z,91.20
2023-09-15T08:21:29.774Z,91.30
2023-09-15T08:22:29.849Z,90.59
2023-09-15T08:23:29.742Z,90.70
2023-09-15T08:24:29.752Z,90.86
2023-09-15T08:25:29.843Z,91.16
2023-09-15T08:26:38.955Z,91.36
2023-09-15T08:27:29.818Z,91.26
2023-09-15T08:28:29.787Z,91.16
2023-09-15T08:29:29.683Z,91.36
2023-09-15T08:30:29.703Z,91.36
2023-09-15T08:31:29.809Z,90.45
2023-09-15T08:32:29.673Z,89.80
2023-09-15T08:33:29.628Z,89.50
2023-09-15T08:34:29.711Z,90.00
2023-09-15T08:35:29.628Z,89.59
2023-09-15T08:36:29.613Z,89.19
2023-09-15T08:37:29.694Z,89.35
2023-09-15T08:38:29.584Z,88.34
2023-09-15T08:39:29.572Z,89.45
2023-09-15T08:40:29.653Z,88.80
2023-09-15T08:41:29.558Z,89.81
2023-09-15T08:42:29.541Z,88.40
2023-09-15T08:43:31.052Z,87.08
2023-09-15T08:44:29.522Z,87.45
2023-09-15T08:45:29.534Z,87.45
2023-09-15T08:46:29.591Z,88.05
2023-09-15T08:47:29.550Z,88.15
2023-09-15T08:48:29.462Z,86.59
2023-09-15T08:49:29.538Z,86.08
2023-09-15T08:50:29.460Z,86.08
2023-09-15T08:51:29.442Z,86.59
2023-09-15T08:52:29.505Z,86.08
2023-09-15T08:53:29.410Z,86.05
2023-09-15T08:54:29.419Z,86.55
2023-09-15T08:55:29.466Z,86.05
2023-09-15T08:56:29.380Z,86.65
2023-09-15T08:57:29.475Z,86.05
2023-09-15T08:58:29.456Z,86.00
2023-09-15T08:59:29.341Z,86.21
2023-09-15T09:00:29.361Z,85.70
2023-09-15T09:01:29.480Z,85.70
2023-09-15T09:02:29.459Z,84.79
2023-09-15T09:03:29.418Z,83.68
2023-09-15T09:04:29.373Z,84.04
2023-09-15T09:05:29.288Z,85.05
2023-09-15T09:06:29.311Z,84.25
2023-09-15T09:07:29.361Z,83.13
2023-09-15T09:08:29.271Z,83.54
2023-09-15T09:09:29.238Z,83.84
2023-09-15T09:10:29.330Z,84.04
2023-09-15T09:11:29.230Z,84.81
2023-09-15T09:12:29.217Z,84.71
2023-09-15T09:13:41.577Z,83.09
2023-09-15T09:14:29.196Z,83.60
2023-09-15T09:15:29.168Z,82.69
2023-09-15T09:16:29.319Z,81.57
2023-09-15T09:17:29.323Z,81.78
2023-09-15T09:18:29.153Z,80.46
2023-09-15T09:19:29.217Z,80.97
2023-09-15T09:20:29.119Z,82.59
2023-09-15T09:21:29.145Z,79.96
2023-09-15T09:22:29.368Z,78.71
2023-09-15T09:23:29.097Z,79.52
2023-09-15T09:24:29.089Z,80.22
2023-09-15T09:25:29.161Z,81.13
2023-09-15T09:26:29.069Z,81.30
2023-09-15T09:27:29.087Z,81.10
2023-09-15T09:28:29.133Z,80.99
2023-09-15T09:29:29.053Z,80.29
2023-09-15T09:30:29.031Z,80.59
2023-09-15T09:31:29.178Z,80.85
2023-09-15T09:32:29.053Z,79.94
2023-09-15T09:33:29.012Z,79.85
2023-09-15T09:34:46.471Z,79.14
2023-09-15T09:35:29.021Z,77.73
2023-09-15T09:36:28.958Z,78.84
2023-09-15T09:37:29.017Z,77.62
2023-09-15T09:38:28.941Z,77.42
2023-09-15T09:39:28.995Z,77.39
2023-09-15T09:40:28.963Z,78.19
2023-09-15T09:41:30.260Z,77.89
2023-09-15T09:42:28.946Z,77.08
2023-09-15T09:43:28.933Z,76.38
2023-09-15T09:44:28.890Z,76.48
2023-09-15T09:45:28.921Z,76.84
2023-09-15T09:46:28.941Z,75.84
2023-09-15T09:47:28.908Z,75.74
2023-09-15T09:48:29.083Z,76.95
2023-09-15T09:49:28.862Z,76.24
2023-09-15T09:50:28.926Z,76.64
2023-09-15T09:51:28.840Z,76.64
2023-09-15T09:52:28.836Z,77.15
2023-09-15T09:53:28.795Z,76.95
2023-09-15T09:54:28.903Z,76.24
2023-09-15T09:55:28.854Z,75.34
2023-09-15T09:56:28.752Z,77.21
2023-09-15T09:57:28.771Z,76.00
2023-09-15T09:58:28.775Z,76.51
2023-09-15T09:59:28.726Z,78.22
2023-09-15T10:00:28.762Z,74.79
2023-09-15T10:01:28.832Z,74.66
2023-09-15T10:02:28.739Z,75.16
2023-09-15T10:03:28.757Z,74.96
2023-09-15T10:04:28.698Z,76.07
2023-09-15T10:05:28.671Z,74.15
2023-09-15T10:06:28.697Z,75.56
2023-09-15T10:07:28.684Z,74.66
2023-09-15T10:08:28.621Z,74.42
2023-09-15T10:09:28.642Z,75.02
2023-09-15T10:10:28.632Z,74.02
2023-09-15T10:11:28.610Z,75.73
2023-09-15T10:12:28.619Z,75.33
2023-09-15T10:13:28.605Z,75.73
2023-09-15T10:14:28.554Z,75.93
2023-09-15T10:15:28.668Z,74.02
2023-09-15T10:16:28.636Z,75.43
2023-09-15T10:17:28.562Z,75.23
2023-09-15T10:18:28.539Z,74.52
2023-09-15T10:19:28.574Z,74.99
2023-09-15T10:20:28.484Z,76.50
2023-09-15T10:21:28.509Z,74.99
2023-09-15T10:22:28.526Z,75.99
2023-09-15T10:23:28.462Z,74.89
2023-09-15T10:24:28.502Z,74.99
2023-09-15T10:25:28.465Z,74.38
2023-09-15T10:26:28.429Z,73.58
2023-09-15T10:27:28.418Z,72.67
2023-09-15T10:28:42.096Z,74.58
2023-09-15T10:29:28.403Z,73.58
2023-09-15T10:30:28.449Z,73.55
2023-09-15T10:31:28.508Z,74.25
2023-09-15T10:32:28.376Z,75.66
2023-09-15T10:33:28.389Z,70.73
2023-09-15T10:34:28.387Z,75.05
2023-09-15T10:35:28.331Z,73.14
2023-09-15T10:36:28.359Z,73.14
2023-09-15T10:37:28.381Z,73.51
2023-09-15T10:38:28.293Z,73.81
2023-09-15T10:39:28.328Z,73.41
2023-09-15T10:40:28.318Z,73.41
2023-09-15T10:41:28.278Z,71.60
2023-09-15T10:42:28.296Z,71.40
2023-09-15T10:43:28.356Z,71.40
2023-09-15T10:44:28.250Z,72.71
2023-09-15T10:45:28.235Z,73.00
2023-09-15T10:46:28.303Z,70.70
2023-09-15T10:47:28.298Z,70.26
2023-09-15T10:48:28.235Z,72.07
2023-09-15T10:49:28.223Z,72.07
2023-09-15T10:50:28.170Z,72.37
2023-09-15T10:51:28.214Z,71.33
2023-09-15T10:52:28.202Z,71.03
2023-09-15T10:53:28.144Z,71.73
2023-09-15T10:54:28.152Z,72.74
2023-09-15T10:55:28.171Z,70.83
2023-09-15T10:56:28.108Z,70.93
2023-09-15T10:57:28.150Z,71.73
2023-09-15T10:58:28.127Z,69.42
2023-09-15T10:59:28.108Z,71.43
2023-09-15T11:00:28.149Z,71.94
2023-09-15T11:01:28.110Z,72.24
2023-09-15T11:02:28.119Z,71.73
2023-09-15T11:03:28.084Z,68.32
2023-09-15T11:04:28.046Z,69.32
2023-09-15T11:05:28.027Z,70.59
2023-09-15T11:06:28.080Z,71.40
2023-09-15T11:07:27.999Z,69.79
2023-09-15T11:08:28.075Z,69.59
2023-09-15T11:09:28.027Z,69.99
2023-09-15T11:10:27.954Z,70.19
2023-09-15T11:11:27.956Z,70.50
2023-09-15T11:12:27.963Z,68.08
2023-09-15T11:13:27.933Z,68.49
2023-09-15T11:14:27.947Z,68.79
2023-09-15T11:15:27.956Z,67.58
2023-09-15T11:16:31.175Z,67.08
2023-09-15T11:17:28.002Z,69.06
2023-09-15T11:18:27.883Z,68.65
2023-09-15T11:19:27.878Z,67.75
2023-09-15T11:20:27.876Z,64.84
2023-09-15T11:21:27.868Z,64.24
2023-09-15T11:22:27.841Z,67.05
2023-09-15T11:23:27.872Z,67.14
2023-09-15T11:24:27.923Z,66.41
2023-09-15T11:25:27.806Z,64.71
2023-09-15T11:26:28.772Z,64.61
2023-09-15T11:27:28.665Z,65.71
2023-09-15T11:28:27.771Z,67.35
2023-09-15T11:29:27.796Z,69.02
2023-09-15T11:30:27.820Z,65.51
2023-09-15T11:31:27.768Z,67.02
2023-09-15T11:32:27.754Z,68.02
2023-09-15T11:33:27.795Z,68.62
2023-09-15T11:34:27.943Z,64.01
2023-09-15T11:35:27.702Z,67.52
2023-09-15T11:36:27.732Z,67.72
2023-09-15T11:37:27.684Z,68.22
2023-09-15T11:38:27.683Z,67.82
2023-09-15T11:39:27.696Z,68.15
2023-09-15T11:40:27.662Z,65.14
2023-09-15T11:41:27.631Z,63.64
2023-09-15T11:42:27.651Z,64.94
2023-09-15T11:43:27.638Z,65.34
2023-09-15T11:44:27.648Z,65.04
2023-09-15T11:45:27.709Z,66.85
2023-09-15T11:46:27.637Z,67.45
2023-09-15T11:47:27.676Z,69.06
2023-09-15T11:48:27.600Z,66.21
2023-09-15T11:49:27.553Z,67.32
2023-09-15T11:50:27.539Z,68.22
2023-09-15T11:51:27.567Z,70.63
2023-09-15T11:52:27.519Z,68.92
2023-09-15T11:53:27.503Z,69.32
2023-09-15T11:54:27.595Z,68.52
2023-09-15T11:55:27.494Z,68.52
2023-09-15T11:56:27.460Z,67.79
2023-09-15T11:57:27.512Z,68.29
2023-09-15T11:58:27.458Z,69.99
2023-09-15T11:59:27.445Z,68.29
2023-09-15T12:00:27.508Z,66.38
2023-09-15T12:01:27.472Z,68.79
2023-09-15T12:02:27.434Z,66.88
2023-09-15T12:03:27.502Z,64.58
2023-09-15T12:04:27.487Z,67.08
2023-09-15T12:05:28.243Z,66.58
2023-09-15T12:06:27.430Z,66.88
2023-09-15T12:07:27.384Z,64.81
2023-09-15T12:08:27.344Z,65.41
2023-09-15T12:09:27.364Z,66.52
2023-09-15T12:10:27.357Z,66.11
2023-09-15T12:11:27.322Z,63.70
2023-09-15T12:12:27.336Z,65.91
2023-09-15T12:13:27.281Z,66.31
2023-09-15T12:14:29.374Z,67.22
2023-09-15T12:15:27.354Z,68.08
2023-09-15T12:16:27.302Z,68.89
2023-09-15T12:17:27.300Z,68.89
2023-09-15T12:18:27.314Z,68.49
2023-09-15T12:19:29.635Z,67.49
2023-09-15T12:20:27.280Z,66.88
2023-09-15T12:21:27.284Z,67.99
2023-09-15T12:22:27.199Z,66.18
2023-09-15T12:23:27.374Z,65.68
2023-09-15T12:24:27.658Z,64.68
2023-09-15T12:25:27.160Z,67.18
2023-09-15T12:26:27.142Z,65.38
2023-09-15T12:27:27.202Z,64.31
2023-09-15T12:28:27.125Z,64.01
2023-09-15T12:29:27.111Z,66.41
2023-09-15T12:30:27.202Z,69.02
2023-09-15T12:31:27.114Z,68.62
2023-09-15T12:32:27.160Z,67.08
2023-09-15T12:33:27.193Z,67.99
2023-09-15T12:34:27.132Z,66.99
2023-09-15T12:35:27.067Z,67.69
2023-09-15T12:36:27.088Z,66.99
2023-09-15T12:37:27.070Z,65.68
2023-09-15T12:38:27.012Z,65.88
2023-09-15T12:39:27.203Z,64.88
2023-09-15T12:40:26.986Z,65.58
2023-09-15T12:41:26.989Z,67.49
2023-09-15T12:42:27.032Z,64.21
2023-09-15T12:43:26.991Z,66.21
2023-09-15T12:44:26.970Z,68.12
2023-09-15T12:45:26.996Z,68.72
2023-09-15T12:46:27.027Z,69.39
2023-09-15T12:47:27.033Z,69.19
2023-09-15T12:48:27.014Z,68.69
2023-09-15T12:49:26.925Z,66.31
2023-09-15T12:50:26.915Z,65.91
2023-09-15T12:51:26.895Z,65.48
2023-09-15T12:52:26.885Z,64.71